createdAt,value
2018-09-21T00:02:27.011Z,6.40
2018-09-21T00:07:30.352Z,6.57
2018-09-21T00:12:33.723Z,6.53
2018-09-21T00:17:37.135Z,6.27
2018-09-21T00:22:40.575Z,5.87
2018-09-21T00:27:44.510Z,6.63
2018-09-21T00:32:51.230Z,6.40
2018-09-21T00:37:54.840Z,6.27
2018-09-21T00:42:59.516Z,6.30
2018-09-21T00:48:02.900Z,6.47
2018-09-21T00:53:06.531Z,6.20
2018-09-21T00:58:10.244Z,7.00
2018-09-21T01:03:13.634Z,7.30
2018-09-21T01:08:17.023Z,6.70
2018-09-21T01:13:20.359Z,6.60
2018-09-21T01:18:23.712Z,6.73
2018-09-21T01:23:27.039Z,6.60
2018-09-21T01:28:30.400Z,6.93
2018-09-21T01:33:33.793Z,6.70
2018-09-21T01:38:37.244Z,6.93
2018-09-21T01:43:40.615Z,6.73
2018-09-21T01:48:44.035Z,6.73
2018-09-21T01:53:47.406Z,7.03
2018-09-21T01:58:50.959Z,6.80
2018-09-21T02:03:54.347Z,7.03
2018-09-21T02:08:57.719Z,7.03
2018-09-21T02:14:01.658Z,6.83
2018-09-21T02:19:05.179Z,7.07
2018-09-21T02:24:08.559Z,7.07
2018-09-21T02:29:11.948Z,6.80
2018-09-21T02:34:15.489Z,7.30
2018-09-21T02:39:18.871Z,6.70
2018-09-21T02:44:22.211Z,6.70
2018-09-21T02:49:25.589Z,6.80
2018-09-21T02:54:28.947Z,7.30
2018-09-21T02:59:32.385Z,6.83
2018-09-21T03:04:39.978Z,7.13
2018-09-21T03:09:43.972Z,6.60
2018-09-21T03:14:47.391Z,7.83
2018-09-21T03:19:50.868Z,7.17
2018-09-21T03:24:54.279Z,6.80
2018-09-21T03:29:57.648Z,6.80
2018-09-21T03:35:01.038Z,7.33
2018-09-21T03:40:04.728Z,7.70
2018-09-21T03:45:08.158Z,6.93
2018-09-21T03:50:11.786Z,7.07
2018-09-21T03:55:15.292Z,7.03
2018-09-21T04:00:19.163Z,6.67
2018-09-21T04:05:22.536Z,6.60
2018-09-21T04:10:25.947Z,6.70
2018-09-21T04:15:29.340Z,7.20
2018-09-21T04:20:32.667Z,6.77
2018-09-21T04:25:36.124Z,6.97
2018-09-21T04:30:39.735Z,6.70
2018-09-21T04:35:43.119Z,6.93
2018-09-21T04:40:46.500Z,6.93
2018-09-21T04:45:49.856Z,6.60
2018-09-21T04:50:53.313Z,7.07
2018-09-21T04:55:56.784Z,7.30
2018-09-21T05:01:00.295Z,7.43
2018-09-21T05:06:03.685Z,6.50
2018-09-21T05:11:07.063Z,6.90
2018-09-21T05:16:10.575Z,7.30
2018-09-21T05:21:14.032Z,7.17
2018-09-21T05:26:17.441Z,7.50
2018-09-21T05:31:20.806Z,7.03
2018-09-21T05:36:24.153Z,6.33
2018-09-21T05:41:27.525Z,7.13
2018-09-21T05:46:30.925Z,7.13
2018-09-21T05:51:34.491Z,7.47
2018-09-21T05:56:37.887Z,6.67
2018-09-21T06:01:41.324Z,6.80
2018-09-21T06:06:44.761Z,6.97
2018-09-21T06:11:48.174Z,6.93
2018-09-21T06:16:51.535Z,7.03
2018-09-21T06:21:54.940Z,7.27
2018-09-21T06:26:58.286Z,6.13
2018-09-21T06:32:01.682Z,6.57
2018-09-21T06:37:05.079Z,6.63
2018-09-21T06:42:08.452Z,6.37
2018-09-21T06:47:11.785Z,6.40
2018-09-21T06:52:15.168Z,6.20
2018-09-21T06:57:18.540Z,5.93
2018-09-21T07:02:21.909Z,6.23
2018-09-21T07:07:25.332Z,5.72
2018-09-21T07:12:28.750Z,6.00
2018-09-21T07:17:32.160Z,5.47
2018-09-21T07:22:35.949Z,5.62
2018-09-21T07:27:39.382Z,5.83
2018-09-21T07:32:42.763Z,5.47
2018-09-21T07:37:46.168Z,6.05
2018-09-21T07:42:49.538Z,5.33
2018-09-21T07:47:52.954Z,5.33
2018-09-21T07:52:56.370Z,5.53
2018-09-21T07:57:59.711Z,5.83
2018-09-21T08:03:03.099Z,4.62
2018-09-21T08:08:07.018Z,5.33
2018-09-21T08:13:10.370Z,5.67
2018-09-21T08:18:13.723Z,5.20
2018-09-21T08:23:17.063Z,5.08
2018-09-21T08:28:20.655Z,5.37
2018-09-21T08:33:24.117Z,5.75
2018-09-21T08:38:27.499Z,5.20
2018-09-21T08:43:30.875Z,5.12
2018-09-21T08:48:34.211Z,5.15
2018-09-21T08:53:37.641Z,5.08
2018-09-21T08:58:41.164Z,5.05
2018-09-21T09:03:44.523Z,5.03
2018-09-21T09:08:48.118Z,5.17
2018-09-21T09:13:52.265Z,4.58
2018-09-21T09:18:55.625Z,5.12
2018-09-21T09:23:59.000Z,4.60
2018-09-21T09:29:02.465Z,3.85
2018-09-21T09:34:05.861Z,3.25
2018-09-21T09:39:11.533Z,3.45
2018-09-21T09:44:15.073Z,3.62
2018-09-21T09:49:18.492Z,3.15
2018-09-21T09:54:22.110Z,3.85
2018-09-21T09:59:25.522Z,3.55
2018-09-21T10:04:28.896Z,3.47
2018-09-21T10:09:32.243Z,3.70
2018-09-21T10:14:35.586Z,4.10
2018-09-21T10:19:38.975Z,3.65
2018-09-21T10:24:42.320Z,3.85
2018-09-21T10:29:45.703Z,3.83
2018-09-21T10:34:49.215Z,4.20
2018-09-21T10:39:52.629Z,3.50
2018-09-21T10:44:56.045Z,3.72
2018-09-21T10:50:00.749Z,3.92
2018-09-21T10:55:04.111Z,3.62
2018-09-21T11:00:08.652Z,3.95
2018-09-21T11:05:11.995Z,4.10
2018-09-21T11:10:15.323Z,4.33
2018-09-21T11:15:18.708Z,4.03
2018-09-21T11:20:22.087Z,4.72
2018-09-21T11:25:25.431Z,4.42
2018-09-21T11:30:28.933Z,4.20
2018-09-21T11:35:32.319Z,4.22
2018-09-21T11:40:36.064Z,4.85
2018-09-21T11:45:40.448Z,4.70
2018-09-21T11:50:43.810Z,4.72
2018-09-21T11:55:47.228Z,4.70
2018-09-21T12:00:50.814Z,4.55
2018-09-21T12:05:54.130Z,4.72
2018-09-21T12:10:57.471Z,5.05
2018-09-21T12:16:00.857Z,5.28
2018-09-21T12:21:04.204Z,5.00
2018-09-21T12:26:08.352Z,4.92
2018-09-21T12:31:11.687Z,5.35
2018-09-21T12:36:15.086Z,5.17
2018-09-21T12:41:18.420Z,4.80
2018-09-21T12:46:24.534Z,3.70
2018-09-21T12:51:27.927Z,4.87
2018-09-21T12:56:31.404Z,4.90
2018-09-21T13:01:35.105Z,4.95
2018-09-21T13:06:38.455Z,4.62
2018-09-21T13:11:41.845Z,4.20
2018-09-21T13:16:45.196Z,4.10
2018-09-21T13:21:48.592Z,4.17
2018-09-21T13:26:52.044Z,4.00
2018-09-21T13:31:55.580Z,4.40
2018-09-21T13:36:59.617Z,3.90
2018-09-21T13:42:03.130Z,4.12
2018-09-21T13:47:06.531Z,4.17
2018-09-21T13:52:10.066Z,4.30
2018-09-21T13:57:13.476Z,4.10
2018-09-21T14:02:16.920Z,4.40
2018-09-21T14:07:20.401Z,5.53
2018-09-21T14:12:23.780Z,3.98
2018-09-21T14:17:27.147Z,4.60
2018-09-21T14:22:30.530Z,4.58
2018-09-21T14:27:34.570Z,4.20
2018-09-21T14:32:38.089Z,3.75
2018-09-21T14:37:41.470Z,4.08
2018-09-21T14:50:24.519Z,4.05
2018-09-21T14:55:27.962Z,3.85
2018-09-21T15:00:31.426Z,4.15
2018-09-21T15:05:34.816Z,4.67
2018-09-21T15:10:38.229Z,4.30
2018-09-21T15:15:41.852Z,5.30
2018-09-21T15:20:46.356Z,4.67
2018-09-21T15:25:49.822Z,4.55
2018-09-21T15:30:53.227Z,4.72
2018-09-21T15:35:56.602Z,4.28
2018-09-21T15:41:00.003Z,4.35
2018-09-21T15:46:03.417Z,5.70
2018-09-21T15:51:07.495Z,3.80
2018-09-21T15:56:11.032Z,4.10
2018-09-21T16:01:14.444Z,4.73
2018-09-21T16:06:18.047Z,3.17
2018-09-21T16:11:21.468Z,3.08
2018-09-21T16:16:24.849Z,3.35
2018-09-21T16:21:28.309Z,3.33
2018-09-21T16:26:32.018Z,3.62
2018-09-21T16:31:35.416Z,4.30
2018-09-21T16:36:38.824Z,5.08
2018-09-21T16:41:42.463Z,9.48
2018-09-21T16:46:45.882Z,10.23
2018-09-21T16:51:49.437Z,8.20
2018-09-21T16:56:52.863Z,7.17
2018-09-21T17:01:58.752Z,5.35
2018-09-21T17:07:04.631Z,4.47
2018-09-21T17:12:11.701Z,3.77
2018-09-21T17:17:15.965Z,3.67
2018-09-21T17:22:20.480Z,2.70
2018-09-21T17:27:25.013Z,2.53
2018-09-21T17:32:29.876Z,2.20
2018-09-21T17:37:34.498Z,2.10
2018-09-21T17:42:39.095Z,1.83
2018-09-21T17:47:43.277Z,1.40
2018-09-21T17:52:47.821Z,1.50
2018-09-21T17:57:52.071Z,1.50
2018-09-21T18:02:55.512Z,1.80
2018-09-21T18:07:59.037Z,1.70
2018-09-21T18:13:02.414Z,1.57
2018-09-21T18:18:06.354Z,1.70
2018-09-21T18:23:09.930Z,1.50
2018-09-21T18:28:13.336Z,1.77
2018-09-21T18:33:16.845Z,1.83
2018-09-21T18:38:20.257Z,1.87
2018-09-21T18:43:23.635Z,1.70
2018-09-21T18:48:29.127Z,1.83
2018-09-21T18:53:32.505Z,1.97
2018-09-21T18:58:35.949Z,1.93
2018-09-21T19:03:39.367Z,2.00
2018-09-21T19:08:42.808Z,2.23
2018-09-21T19:13:46.236Z,2.17
2018-09-21T19:18:50.679Z,1.70
2018-09-21T19:23:54.195Z,1.93
2018-09-21T19:28:57.709Z,1.93
2018-09-21T19:34:01.186Z,2.30
2018-09-21T19:39:06.503Z,2.20
2018-09-21T19:44:09.953Z,2.23
2018-09-21T19:49:13.349Z,2.60
2018-09-21T19:54:18.416Z,2.20
2018-09-21T19:59:22.149Z,2.70
2018-09-21T20:04:25.544Z,2.13
2018-09-21T20:09:29.680Z,2.90
2018-09-21T20:14:33.945Z,2.60
2018-09-21T20:19:38.500Z,2.70
2018-09-21T20:24:42.009Z,2.20
2018-09-21T20:29:45.632Z,2.20
2018-09-21T20:34:49.299Z,2.37
2018-09-21T20:39:52.720Z,2.37
2018-09-21T20:44:56.075Z,2.30
2018-09-21T20:49:59.475Z,2.30
2018-09-21T20:55:03.010Z,2.23
2018-09-21T21:00:06.468Z,2.47
2018-09-21T21:05:09.883Z,2.50
2018-09-21T21:10:13.324Z,2.33
2018-09-21T21:15:16.717Z,2.80
2018-09-21T21:20:20.281Z,3.00
2018-09-21T21:25:23.673Z,2.80
2018-09-21T21:30:27.112Z,2.43
2018-09-21T21:35:30.510Z,2.87
2018-09-21T21:40:33.871Z,2.90
2018-09-21T21:45:37.268Z,2.60
2018-09-21T21:50:41.255Z,2.80
2018-09-21T21:55:45.408Z,2.80
2018-09-21T22:00:54.218Z,2.60
2018-09-21T22:05:57.669Z,2.37
2018-09-21T22:11:04.663Z,2.40
2018-09-21T22:16:08.042Z,2.50
2018-09-21T22:21:11.509Z,2.60
2018-09-21T22:26:15.236Z,2.73
2018-09-21T22:31:18.877Z,2.37
2018-09-21T22:36:22.359Z,2.30
2018-09-21T22:41:26.191Z,2.62
2018-09-21T22:46:30.027Z,2.50
2018-09-21T22:51:33.487Z,2.60
2018-09-21T22:56:36.890Z,2.37
2018-09-21T23:01:40.324Z,2.40
2018-09-21T23:06:44.491Z,2.47
2018-09-21T23:11:48.210Z,2.43
2018-09-21T23:16:52.250Z,2.40
2018-09-21T23:21:55.648Z,2.57
2018-09-21T23:27:01.090Z,2.33
2018-09-21T23:32:04.608Z,2.13
2018-09-21T23:37:08.148Z,2.30
2018-09-21T23:42:11.511Z,2.03
2018-09-21T23:47:16.719Z,2.30
2018-09-21T23:52:21.080Z,2.60
2018-09-21T23:57:24.442Z,2.30
